Terminal Aerodrome Forecast
Issued by NWS

Home | Current Version | Previous Version | Text Only | Print | Product List | Glossary On
Versions: 1 2 3 4 5 6 7 8 9 10 11 12 13 14 15 16
000
FTUS43 KICT 291025 AAA
TAFHUT
TAF AMD
KHUT 291025Z 2910/3006 18013KT P6SM BKN150
     FM291200 17007KT P6SM BKN150
     FM291400 32007KT P6SM OVC150
     FM291600 35022G30KT P6SM OVC130
     FM292100 36013KT P6SM BKN200
     FM292300 36007KT P6SM SKC=

USA.gov is the U.S. government's official web portal to all federal, state and local government web resources and services.